Time;durP1;ratioP1;P1;durP2;ratioP2;P2;SDS_P1;SDS_P2;PMS_P1;PMS_P2;Temp;Humidity;BMP_temperature;BMP_pressure;BME280_temperature;BME280_humidity;BME280_pressure;Samples;Min_cycle;Max_cycle;Signal;HPM_P1;HPM_P2
2022/01/04 16:36:57;;;;;;;390.38;108.47;;;5.20;99.90;;;;;;5138252;27;1292564;-86
2022/01/04 16:39:26;;;;;;;397.20;138.98;;;5.00;99.90;;;;;;5128485;27;20433;-85
2022/01/04 16:41:54;;;;;;;210.80;71.93;;;4.90;99.90;;;;;;5126670;27;20053;-85
2022/01/04 16:44:23;;;;;;;83.53;27.98;;;4.70;99.90;;;;;;5148633;27;20125;-83
2022/01/04 16:46:50;;;;;;;158.75;59.72;;;4.70;99.90;;;;;;5135960;27;20471;-85
2022/01/04 16:49:16;;;;;;;267.08;110.45;;;4.60;99.90;;;;;;5117910;27;20034;-85
2022/01/04 16:51:42;;;;;;;129.88;50.72;;;4.50;99.90;;;;;;5123159;27;20054;-83
2022/01/04 16:54:10;;;;;;;27.02;7.03;;;4.40;99.90;;;;;;5132206;27;20126;-84
2022/01/04 16:56:37;;;;;;;31.95;11.68;;;4.30;99.90;;;;;;5104014;27;20437;-84
2022/01/04 16:59:07;;;;;;;69.18;30.63;;;4.20;99.90;;;;;;5126491;27;20050;-84
2022/01/04 17:01:33;;;;;;;107.13;48.45;;;4.20;99.90;;;;;;5141958;27;20073;-85
2022/01/04 17:03:59;;;;;;;35.97;12.75;;;4.20;99.90;;;;;;5126247;27;20769;-84
2022/01/04 17:06:24;;;;;;;27.58;10.38;;;4.20;99.90;;;;;;5126912;27;20391;-83
2022/01/04 17:08:54;;;;;;;54.60;23.85;;;4.20;99.90;;;;;;5114149;27;20126;-83
2022/01/04 17:11:23;;;;;;;56.78;26.88;;;4.30;99.90;;;;;;5124997;27;20051;-83
2022/01/04 17:16:35;;;;;;;26.80;10.38;;;4.50;99.90;;;;;;5145815;27;20042;-86
2022/01/04 17:19:03;;;;;;;26.15;10.48;;;4.50;99.90;;;;;;5131281;27;20375;-86
2022/01/04 17:21:29;;;;;;;15.80;5.75;;;4.60;99.90;;;;;;5130482;27;20042;-84
2022/01/04 17:23:56;;;;;;;19.73;5.53;;;4.60;99.90;;;;;;5125990;27;20074;-84
2022/01/04 17:26:23;;;;;;;17.08;4.07;;;4.70;99.90;;;;;;5123169;27;20043;-83
2022/01/04 17:28:50;;;;;;;19.00;4.78;;;4.70;99.90;;;;;;5131819;27;20084;-83
2022/01/04 17:31:16;;;;;;;22.52;5.57;;;4.70;99.90;;;;;;5152577;27;20034;-83
2022/01/04 17:33:41;;;;;;;28.65;8.10;;;4.60;99.90;;;;;;5118729;27;20501;-83
2022/01/04 17:36:07;;;;;;;35.80;11.15;;;4.70;99.90;;;;;;5107010;27;20140;-83
2022/01/04 17:38:34;;;;;;;14.02;4.15;;;4.50;99.90;;;;;;5135625;27;20047;-82
2022/01/04 17:41:00;;;;;;;16.15;3.47;;;4.40;99.90;;;;;;5099449;27;20039;-84
2022/01/04 17:43:26;;;;;;;19.52;4.30;;;4.50;99.90;;;;;;5137934;27;20070;-82
2022/01/04 17:45:52;;;;;;;20.88;3.83;;;4.30;99.90;;;;;;5131645;27;20043;-84
2022/01/04 17:48:22;;;;;;;17.83;4.85;;;4.30;99.90;;;;;;5104503;27;20483;-84
2022/01/04 17:50:49;;;;;;;15.85;2.75;;;4.20;99.90;;;;;;5109317;27;20098;-83
2022/01/04 17:53:15;;;;;;;14.40;2.78;;;4.20;99.90;;;;;;5111543;27;20047;-83
2022/01/04 17:55:41;;;;;;;17.55;2.85;;;4.10;99.90;;;;;;5115696;27;20528;-83
2022/01/04 17:58:08;;;;;;;20.00;2.78;;;4.10;99.90;;;;;;5101080;27;20495;-83
2022/01/04 18:00:35;;;;;;;19.95;2.63;;;4.00;99.90;;;;;;5105070;27;20111;-86
2022/01/04 18:03:02;;;;;;;17.55;3.10;;;4.00;99.90;;;;;;5129213;27;20039;-84
2022/01/04 18:05:28;;;;;;;16.13;4.45;;;4.00;99.90;;;;;;5084815;27;20395;-85
2022/01/04 18:07:54;;;;;;;20.33;3.88;;;4.00;99.90;;;;;;5104017;27;20047;-83
2022/01/04 18:10:22;;;;;;;20.25;3.10;;;4.10;99.90;;;;;;5120329;27;20073;-84
2022/01/04 18:12:47;;;;;;;17.45;3.67;;;4.10;99.90;;;;;;5117358;27;20098;-83
2022/01/04 18:15:13;;;;;;;24.13;3.67;;;4.10;99.90;;;;;;5120461;27;20042;-84
2022/01/04 18:17:39;;;;;;;20.15;3.13;;;4.20;99.90;;;;;;5098625;27;20051;-83
2022/01/04 18:20:06;;;;;;;17.17;4.15;;;4.20;99.90;;;;;;5097854;27;20054;-83
2022/01/04 18:22:33;;;;;;;20.55;3.40;;;4.20;99.90;;;;;;5118830;27;20053;-84
2022/01/04 18:24:59;;;;;;;20.02;3.92;;;4.40;99.90;;;;;;5117722;27;20051;-82
2022/01/04 18:27:25;;;;;;;19.38;3.63;;;4.60;99.90;;;;;;5098915;27;20377;-83
2022/01/04 18:29:50;;;;;;;20.90;3.75;;;4.60;99.90;;;;;;5108696;27;20058;-83
2022/01/04 18:32:17;;;;;;;24.98;3.70;;;4.60;99.90;;;;;;5119967;27;20046;-83
2022/01/04 18:34:43;;;;;;;17.98;3.20;;;4.60;99.90;;;;;;5114860;27;20147;-84
2022/01/04 18:37:09;;;;;;;24.08;3.55;;;4.70;99.90;;;;;;5100175;27;20090;-83
2022/01/04 18:39:35;;;;;;;23.58;3.28;;;4.60;99.90;;;;;;5106889;28;20369;-84
2022/01/04 18:42:02;;;;;;;22.63;3.28;;;4.60;99.90;;;;;;5108524;28;20040;-85
2022/01/04 18:44:27;;;;;;;25.17;3.67;;;4.50;99.90;;;;;;5094252;28;20297;-83
2022/01/04 18:46:53;;;;;;;16.65;2.50;;;4.60;99.90;;;;;;5104798;27;20097;-85
2022/01/04 18:49:20;;;;;;;16.85;2.30;;;4.50;99.90;;;;;;5087499;27;20040;-85
2022/01/04 18:51:46;;;;;;;23.25;3.08;;;4.70;99.90;;;;;;5133780;27;20049;-86
2022/01/04 18:54:11;;;;;;;18.70;3.00;;;4.70;99.90;;;;;;5112569;27;20046;-85
2022/01/04 18:56:37;;;;;;;14.80;2.30;;;4.70;99.90;;;;;;5079038;27;20040;-82
2022/01/04 18:59:03;;;;;;;18.90;2.63;;;4.70;99.90;;;;;;5106820;27;20039;-82
2022/01/04 19:01:31;;;;;;;18.63;3.17;;;4.70;99.90;;;;;;5119154;27;20040;-82
2022/01/04 19:03:57;;;;;;;21.83;3.00;;;4.70;99.90;;;;;;5077973;28;20055;-78
2022/01/04 19:06:23;;;;;;;18.45;2.88;;;4.60;99.90;;;;;;5127620;27;20116;-84
2022/01/04 19:08:49;;;;;;;17.83;2.58;;;4.60;99.90;;;;;;5079397;28;20047;-83
2022/01/04 19:11:15;;;;;;;14.20;2.30;;;4.50;99.90;;;;;;5122879;27;20039;-82
2022/01/04 19:13:41;;;;;;;14.38;2.42;;;4.50;99.90;;;;;;5118628;27;20051;-85
2022/01/04 19:16:07;;;;;;;16.90;2.35;;;4.50;99.90;;;;;;5093824;27;20040;-81
2022/01/04 19:18:33;;;;;;;10.90;1.85;;;4.40;99.90;;;;;;5104436;28;20051;-81
2022/01/04 19:21:04;;;;;;;13.30;2.22;;;4.50;99.90;;;;;;5110278;27;20047;-85
2022/01/04 19:23:32;;;;;;;16.90;2.30;;;4.50;99.90;;;;;;5093999;28;20047;-81
2022/01/04 19:25:57;;;;;;;13.80;2.72;;;4.50;99.90;;;;;;5109110;27;20507;-82
2022/01/04 19:28:24;;;;;;;12.18;2.85;;;4.50;99.90;;;;;;5095122;28;20114;-85
2022/01/04 19:30:54;;;;;;;21.95;3.28;;;4.50;99.90;;;;;;5121689;27;20051;-81
2022/01/04 19:38:35;;;;;;;19.52;2.53;;;4.50;99.90;;;;;;5105891;27;20118;-86
2022/01/04 19:41:02;;;;;;;18.60;3.03;;;4.50;99.90;;;;;;5117546;27;20604;-84
2022/01/04 19:43:28;;;;;;;14.55;2.50;;;4.60;99.90;;;;;;5124513;27;20248;-83
2022/01/04 19:45:55;;;;;;;16.27;2.38;;;4.60;99.90;;;;;;5108410;27;21905;-85
2022/01/04 19:48:20;;;;;;;10.02;2.25;;;4.60;99.90;;;;;;5106352;28;20051;-82
2022/01/04 19:50:48;;;;;;;19.10;2.75;;;4.50;99.90;;;;;;5091896;27;20388;-82
2022/01/04 19:53:15;;;;;;;10.20;1.70;;;4.60;99.90;;;;;;5109888;28;20084;-84
2022/01/04 19:55:41;;;;;;;14.82;2.33;;;4.60;99.90;;;;;;5127095;27;20107;-83
2022/01/04 19:58:07;;;;;;;18.85;2.38;;;4.60;99.90;;;;;;5103166;27;20456;-85
2022/01/04 20:00:33;;;;;;;15.18;2.33;;;4.60;99.90;;;;;;5095323;27;20071;-82
2022/01/04 20:03:00;;;;;;;16.92;2.05;;;4.50;99.90;;;;;;5094276;28;20103;-82
2022/01/04 20:05:26;;;;;;;15.57;2.40;;;4.50;99.90;;;;;;5098203;28;20502;-84
2022/01/04 20:07:51;;;;;;;17.90;2.78;;;4.40;99.90;;;;;;5120311;27;20121;-81
2022/01/04 20:10:18;;;;;;;19.92;3.17;;;4.40;99.90;;;;;;5100049;28;20058;-83
2022/01/04 20:12:43;;;;;;;18.98;2.45;;;4.30;99.90;;;;;;5112892;27;20125;-83
2022/01/04 20:15:10;;;;;;;11.70;1.70;;;4.40;99.90;;;;;;5111422;28;20527;-81
2022/01/04 20:17:36;;;;;;;11.18;2.08;;;4.40;99.90;;;;;;5078328;28;20047;-82
2022/01/04 20:20:05;;;;;;;16.20;2.13;;;4.40;99.90;;;;;;5095552;27;20047;-83
2022/01/04 20:22:31;;;;;;;10.70;2.22;;;4.30;99.90;;;;;;5104877;28;20050;-81
2022/01/04 20:24:56;;;;;;;15.68;2.20;;;4.40;99.90;;;;;;5098404;28;20043;-81
2022/01/04 20:27:23;;;;;;;11.13;1.60;;;4.30;99.90;;;;;;5093215;28;20047;-83
2022/01/04 20:29:48;;;;;;;17.25;2.22;;;4.30;99.90;;;;;;5119896;28;20116;-85
2022/01/04 20:32:14;;;;;;;7.47;1.50;;;4.10;99.90;;;;;;5079324;28;20083;-83
2022/01/04 20:34:40;;;;;;;14.15;1.90;;;4.20;99.90;;;;;;5086668;28;20512;-83
2022/01/04 20:37:06;;;;;;;17.02;2.15;;;4.30;99.90;;;;;;5070952;28;20168;-82
2022/01/04 20:39:31;;;;;;;20.75;3.60;;;4.20;99.90;;;;;;5058362;28;20139;-84
2022/01/04 20:41:57;;;;;;;15.57;2.60;;;4.20;99.90;;;;;;5074785;28;20036;-84
2022/01/04 20:44:23;;;;;;;24.92;3.95;;;4.30;99.90;;;;;;5088900;28;20100;-84
2022/01/04 20:46:48;;;;;;;20.77;3.60;;;4.30;99.90;;;;;;5089709;28;20167;-83
2022/01/04 20:49:15;;;;;;;25.85;3.95;;;4.40;99.90;;;;;;5057412;28;20105;-82
2022/01/04 20:51:40;;;;;;;14.85;2.03;;;4.50;99.90;;;;;;5107796;28;20075;-81
2022/01/04 20:54:06;;;;;;;17.50;2.65;;;4.50;99.90;;;;;;5089418;28;20084;-83
2022/01/04 20:56:32;;;;;;;16.88;2.40;;;4.50;99.90;;;;;;5090312;28;20040;-86
2022/01/04 20:58:57;;;;;;;19.45;2.92;;;4.60;99.90;;;;;;5080662;28;20044;-82
2022/01/04 21:01:23;;;;;;;12.80;2.30;;;4.60;99.90;;;;;;5077524;28;20206;-83
2022/01/04 21:03:48;;;;;;;18.85;3.83;;;4.60;99.90;;;;;;5104262;28;20044;-82
2022/01/04 21:06:14;;;;;;;16.73;2.45;;;4.70;99.90;;;;;;5090368;28;20048;-85
2022/01/04 21:08:40;;;;;;;20.98;2.85;;;4.70;99.90;;;;;;5058537;28;20040;-83
2022/01/04 21:11:06;;;;;;;17.98;2.60;;;4.80;99.90;;;;;;5092642;28;20043;-83
2022/01/04 21:13:31;;;;;;;14.93;2.78;;;4.80;99.90;;;;;;5084614;28;20048;-83
2022/01/04 21:15:57;;;;;;;20.13;2.65;;;4.80;99.90;;;;;;5074229;28;20044;-81
2022/01/04 21:18:23;;;;;;;11.23;2.60;;;4.90;99.90;;;;;;5085507;28;20439;-81
2022/01/04 21:20:49;;;;;;;20.83;2.90;;;4.90;99.90;;;;;;5091856;28;20083;-81
2022/01/04 21:23:16;;;;;;;16.65;3.00;;;4.90;99.90;;;;;;5094865;28;20392;-82
2022/01/04 21:25:42;;;;;;;16.52;3.25;;;4.90;99.90;;;;;;5090212;28;20039;-83
2022/01/04 21:28:08;;;;;;;14.77;2.35;;;4.90;99.90;;;;;;5097700;28;20049;-82
2022/01/04 21:30:34;;;;;;;17.10;2.72;;;4.80;99.90;;;;;;5102079;28;20097;-84
2022/01/04 21:33:01;;;;;;;14.23;2.13;;;4.60;99.90;;;;;;5093233;28;20080;-84
2022/01/04 21:35:27;;;;;;;14.85;2.17;;;4.50;99.90;;;;;;5098319;27;20051;-83
2022/01/04 21:37:52;;;;;;;10.93;1.60;;;4.40;99.90;;;;;;5104767;27;20129;-84
2022/01/04 21:40:18;;;;;;;14.55;1.67;;;4.40;99.90;;;;;;5098572;27;20422;-84
2022/01/04 21:42:44;;;;;;;10.48;1.48;;;4.30;99.90;;;;;;5113921;27;20046;-84
2022/01/04 21:45:11;;;;;;;8.98;1.35;;;4.20;99.90;;;;;;5111357;27;20100;-83
2022/01/04 21:47:37;;;;;;;10.23;1.30;;;4.20;99.90;;;;;;5135968;27;20399;-81
2022/01/04 21:50:04;;;;;;;6.32;1.30;;;4.10;99.90;;;;;;5119540;27;20058;-81
2022/01/04 21:53:19;;;;;;;6.72;1.05;;;4.10;99.90;;;;;;5119669;27;20043;-81
2022/01/04 21:55:45;;;;;;;8.93;1.17;;;4.10;99.90;;;;;;5136099;27;20050;-81
2022/01/04 21:58:14;;;;;;;15.13;2.28;;;4.10;99.90;;;;;;5117342;27;20051;-81
2022/01/04 22:00:40;;;;;;;13.48;1.70;;;4.10;99.90;;;;;;5135691;27;20046;-82
2022/01/04 22:03:07;;;;;;;10.38;1.85;;;4.20;99.90;;;;;;5089583;28;20081;-81
2022/01/04 22:05:33;;;;;;;17.55;2.65;;;4.20;99.90;;;;;;5113903;27;20047;-81
2022/01/04 22:08:01;;;;;;;11.60;2.28;;;4.30;99.90;;;;;;5127849;27;20047;-82
2022/01/04 22:10:27;;;;;;;17.10;2.58;;;4.40;99.90;;;;;;5115076;27;20126;-81
2022/01/04 22:12:53;;;;;;;21.58;2.72;;;4.30;99.90;;;;;;5111080;27;20130;-81
2022/01/04 22:15:19;;;;;;;12.98;2.30;;;4.30;99.90;;;;;;5117926;27;20046;-82
2022/01/04 22:17:44;;;;;;;12.02;1.85;;;4.30;99.90;;;;;;5127780;27;20051;-82
2022/01/04 22:20:11;;;;;;;15.05;2.20;;;4.30;99.90;;;;;;5128210;27;20040;-82
2022/01/04 22:22:37;;;;;;;16.60;2.65;;;4.30;99.90;;;;;;5125290;27;20087;-82
2022/01/04 22:25:03;;;;;;;11.70;2.30;;;4.40;99.90;;;;;;5125901;27;20445;-82
2022/01/04 22:27:29;;;;;;;16.42;3.17;;;4.40;99.90;;;;;;5111150;28;20502;-82
2022/01/04 22:29:55;;;;;;;15.57;2.58;;;4.40;99.90;;;;;;5118841;27;20050;-84
2022/01/04 22:32:21;;;;;;;10.27;2.60;;;4.40;99.90;;;;;;5098583;27;20376;-84
2022/01/04 22:34:47;;;;;;;19.73;2.63;;;4.50;99.90;;;;;;5108460;28;20043;-82
2022/01/04 22:37:13;;;;;;;19.00;3.35;;;4.50;99.90;;;;;;5090632;27;20100;-84
2022/01/04 22:39:41;;;;;;;20.27;2.83;;;4.50;99.90;;;;;;5113494;27;20084;-83
2022/01/04 22:42:06;;;;;;;22.20;3.20;;;4.70;99.90;;;;;;5133908;27;20050;-81
2022/01/04 22:44:35;;;;;;;13.10;2.67;;;4.70;99.90;;;;;;5111813;27;20047;-88
2022/01/04 22:47:02;;;;;;;16.63;2.15;;;4.70;99.90;;;;;;5086280;27;20121;-82
2022/01/04 22:49:29;;;;;;;19.58;2.50;;;4.60;99.90;;;;;;5130484;27;20396;-83
2022/01/04 22:51:55;;;;;;;14.55;2.75;;;4.60;99.90;;;;;;5108001;27;20058;-81
2022/01/04 22:54:21;;;;;;;15.40;2.22;;;4.50;99.90;;;;;;5121396;27;20177;-81
2022/01/04 22:56:47;;;;;;;11.18;2.20;;;4.60;99.90;;;;;;5129771;27;20114;-83
2022/01/04 22:59:13;;;;;;;17.20;2.75;;;4.70;99.90;;;;;;5111918;27;20043;-82
2022/01/04 23:01:39;;;;;;;13.63;2.08;;;4.70;99.90;;;;;;5124637;27;20067;-84
2022/01/04 23:04:04;;;;;;;9.55;2.08;;;4.60;99.90;;;;;;5126211;27;20042;-83
2022/01/04 23:06:30;;;;;;;15.35;2.55;;;4.60;99.90;;;;;;5084458;27;20043;-85
2022/01/04 23:09:00;;;;;;;18.45;2.33;;;4.60;99.90;;;;;;5097922;27;20055;-84
2022/01/04 23:11:26;;;;;;;14.25;2.13;;;4.60;99.90;;;;;;5096520;28;20075;-81
2022/01/04 23:13:52;;;;;;;14.38;2.47;;;4.70;99.90;;;;;;5121937;27;20078;-84
2022/01/04 23:16:18;;;;;;;14.23;2.65;;;4.70;99.90;;;;;;5132340;27;20047;-84
2022/01/04 23:18:44;;;;;;;12.32;2.85;;;4.80;99.90;;;;;;5096375;27;20039;-82
2022/01/04 23:21:10;;;;;;;23.17;3.95;;;4.80;99.90;;;;;;5108952;28;20051;-82
2022/01/04 23:23:36;;;;;;;22.35;3.17;;;4.80;99.90;;;;;;5122104;27;20083;-83
2022/01/04 23:26:02;;;;;;;14.55;2.40;;;4.80;99.90;;;;;;5097482;27;20070;-81
2022/01/04 23:28:29;;;;;;;21.08;4.50;;;4.80;99.90;;;;;;5089880;27;20042;-81
2022/01/04 23:30:55;;;;;;;18.77;3.03;;;4.80;99.90;;;;;;5095761;27;20341;-81
2022/01/04 23:33:21;;;;;;;18.33;2.95;;;4.70;99.90;;;;;;5099600;27;20104;-81
2022/01/04 23:35:46;;;;;;;18.75;2.72;;;4.70;99.90;;;;;;5123915;27;20113;-80
2022/01/04 23:38:12;;;;;;;11.70;2.30;;;4.70;99.90;;;;;;5102611;27;20051;-81
2022/01/04 23:40:38;;;;;;;15.60;2.78;;;4.70;99.90;;;;;;5136758;27;20046;-82
2022/01/04 23:43:04;;;;;;;12.82;2.22;;;4.70;99.90;;;;;;5120848;27;20122;-83
2022/01/04 23:45:30;;;;;;;13.93;3.08;;;4.60;99.90;;;;;;5095897;27;20039;-81
2022/01/04 23:47:56;;;;;;;16.88;2.85;;;4.60;99.90;;;;;;5135384;27;20043;-80
2022/01/04 23:50:21;;;;;;;16.40;2.38;;;4.60;99.90;;;;;;5128491;27;20111;-83
2022/01/04 23:52:47;;;;;;;16.17;2.88;;;4.60;99.90;;;;;;5127360;27;20039;-81
2022/01/04 23:55:13;;;;;;;12.85;2.20;;;4.60;99.90;;;;;;5115910;27;20039;-81
2022/01/04 23:57:39;;;;;;;19.85;2.95;;;4.70;99.90;;;;;;5130441;27;20039;-83
